createdAt,value
2023-03-06T00:00:34.942Z,6.53
2023-03-06T00:03:03.992Z,5.97
2023-03-06T00:05:31.683Z,6.47
2023-03-06T00:07:59.135Z,8.03
2023-03-06T00:10:28.626Z,6.03
2023-03-06T00:12:57.322Z,8.57
2023-03-06T00:15:26.410Z,7.90
2023-03-06T00:17:54.143Z,8.60
2023-03-06T00:20:23.848Z,11.63
2023-03-06T00:22:51.871Z,9.47
2023-03-06T00:25:21.486Z,8.67
2023-03-06T00:27:49.412Z,13.33
2023-03-06T00:30:19.424Z,8.53
2023-03-06T00:32:46.932Z,7.60
2023-03-06T00:35:15.204Z,7.77
2023-03-06T00:37:44.272Z,6.43
2023-03-06T00:40:14.793Z,6.03
2023-03-06T00:42:42.465Z,6.80
2023-03-06T00:45:10.695Z,7.63
2023-03-06T00:47:38.448Z,8.43
2023-03-06T00:50:06.873Z,7.30
2023-03-06T00:52:34.376Z,7.33
2023-03-06T00:55:03.326Z,6.00
2023-03-06T00:57:31.268Z,10.67
2023-03-06T00:59:58.704Z,5.60
2023-03-06T01:02:26.460Z,6.50
2023-03-06T01:04:53.942Z,5.60
2023-03-06T01:07:21.354Z,6.10
2023-03-06T01:09:48.806Z,7.33
2023-03-06T01:12:17.612Z,7.17
2023-03-06T01:14:45.433Z,9.30
2023-03-06T01:17:12.889Z,6.50
2023-03-06T01:19:40.354Z,6.80
2023-03-06T01:22:07.854Z,8.70
2023-03-06T01:24:35.396Z,7.57
2023-03-06T01:27:02.864Z,6.53
2023-03-06T01:29:31.707Z,10.43
2023-03-06T01:31:59.259Z,6.87
2023-03-06T01:34:26.980Z,6.40
2023-03-06T01:36:54.413Z,6.83
2023-03-06T01:39:22.001Z,9.77
2023-03-06T01:41:49.477Z,7.03
2023-03-06T01:44:16.944Z,14.30
2023-03-06T01:46:46.489Z,8.20
2023-03-06T01:49:19.474Z,7.37
2023-03-06T01:51:51.186Z,7.93
2023-03-06T01:54:23.745Z,8.00
2023-03-06T01:56:55.138Z,8.80
2023-03-06T01:59:24.655Z,10.63
2023-03-06T02:01:54.904Z,8.80
2023-03-06T02:04:22.503Z,8.90
2023-03-06T02:06:50.640Z,10.87
2023-03-06T02:09:18.206Z,9.00
2023-03-06T02:11:46.305Z,8.67
2023-03-06T02:14:16.277Z,8.20
2023-03-06T02:16:44.502Z,10.50
2023-03-06T02:19:22.916Z,9.67
2023-03-06T02:21:50.840Z,9.97
2023-03-06T02:24:32.321Z,8.60
2023-03-06T02:27:04.100Z,10.20
2023-03-06T02:29:32.236Z,10.33
2023-03-06T02:31:59.922Z,8.97
2023-03-06T02:34:57.212Z,8.73
2023-03-06T02:37:27.482Z,11.37
2023-03-06T02:40:02.094Z,9.83
2023-03-06T02:42:31.218Z,12.37
2023-03-06T02:45:01.867Z,9.97
2023-03-06T02:47:29.502Z,9.53
2023-03-06T02:49:56.936Z,8.70
2023-03-06T02:52:25.158Z,8.00
2023-03-06T02:54:52.632Z,8.60
2023-03-06T02:57:20.116Z,8.30
2023-03-06T02:59:48.843Z,7.67
2023-03-06T03:02:16.569Z,10.47
2023-03-06T03:04:44.115Z,7.00
2023-03-06T03:07:11.599Z,7.80
2023-03-06T03:09:39.032Z,8.83
2023-03-06T03:12:08.220Z,9.33
2023-03-06T03:14:36.044Z,5.90
2023-03-06T03:17:05.219Z,7.67
2023-03-06T03:19:32.758Z,9.60
2023-03-06T03:22:00.199Z,10.23
2023-03-06T03:24:28.038Z,7.23
2023-03-06T03:26:55.494Z,4.37
2023-03-06T03:29:23.025Z,9.77
2023-03-06T03:31:50.756Z,7.47
2023-03-06T03:34:19.694Z,9.90
2023-03-06T03:36:47.426Z,7.17
2023-03-06T03:39:15.326Z,7.73
2023-03-06T03:41:42.787Z,5.23
2023-03-06T03:44:10.963Z,5.23
2023-03-06T03:46:38.805Z,6.63
2023-03-06T03:49:06.798Z,8.13
2023-03-06T03:51:35.729Z,6.93
2023-03-06T03:54:03.204Z,5.83
2023-03-06T03:56:30.645Z,5.97
2023-03-06T03:58:58.781Z,6.60
2023-03-06T04:01:26.637Z,6.23
2023-03-06T04:03:54.065Z,6.77
2023-03-06T04:06:21.522Z,6.57
2023-03-06T04:08:50.268Z,8.13
2023-03-06T04:11:18.081Z,4.07
2023-03-06T04:13:45.618Z,5.03
2023-03-06T04:16:13.127Z,4.07
2023-03-06T04:18:40.707Z,3.80
2023-03-06T04:21:08.146Z,4.10
2023-03-06T04:23:35.799Z,3.73
2023-03-06T04:26:05.004Z,3.87
2023-03-06T04:28:32.430Z,4.30
2023-03-06T04:30:59.867Z,2.90
2023-03-06T04:33:27.395Z,2.90
2023-03-06T04:35:54.822Z,2.80
2023-03-06T04:38:22.327Z,2.50
2023-03-06T04:40:50.100Z,2.43
2023-03-06T04:43:19.063Z,3.87
2023-03-06T04:45:46.624Z,2.70
2023-03-06T04:48:15.708Z,2.60
2023-03-06T04:50:43.212Z,3.40
2023-03-06T04:53:11.033Z,3.13
2023-03-06T04:55:38.539Z,3.47
2023-03-06T04:58:05.979Z,2.37
2023-03-06T05:00:34.747Z,3.03
2023-03-06T05:03:02.822Z,3.00
2023-03-06T05:05:30.518Z,3.33
2023-03-06T05:07:58.355Z,3.17
2023-03-06T05:10:25.785Z,2.57
2023-03-06T05:12:53.294Z,2.63
2023-03-06T05:15:21.146Z,2.50
2023-03-06T05:17:50.100Z,2.70
2023-03-06T05:20:18.966Z,2.80
2023-03-06T05:22:46.466Z,3.00
2023-03-06T05:25:13.896Z,2.30
2023-03-06T05:27:42.000Z,2.77
2023-03-06T05:30:12.793Z,2.30
2023-03-06T05:32:40.293Z,3.63
2023-03-06T05:35:19.693Z,2.20
2023-03-06T05:37:47.653Z,2.93
2023-03-06T05:40:16.137Z,2.10
2023-03-06T05:42:43.603Z,2.47
2023-03-06T05:45:12.314Z,2.80
2023-03-06T05:47:39.778Z,2.67
2023-03-06T05:50:10.501Z,2.60
2023-03-06T05:52:38.139Z,2.93
2023-03-06T05:55:06.266Z,2.67
2023-03-06T05:57:33.685Z,2.70
2023-03-06T06:00:01.090Z,2.80
2023-03-06T06:02:28.636Z,4.13
2023-03-06T06:04:56.046Z,2.60
2023-03-06T06:07:24.800Z,2.43
2023-03-06T06:09:54.040Z,5.27
2023-03-06T06:12:21.558Z,3.47
2023-03-06T06:14:48.994Z,3.53
2023-03-06T06:17:16.806Z,2.83
2023-03-06T06:19:44.464Z,2.90
2023-03-06T06:22:12.609Z,2.30
2023-03-06T06:24:41.436Z,3.60
2023-03-06T06:27:09.709Z,2.50
2023-03-06T06:29:37.301Z,3.03
2023-03-06T06:32:04.884Z,2.03
2023-03-06T06:34:32.368Z,2.90
2023-03-06T06:36:59.810Z,2.93
2023-03-06T06:39:28.776Z,3.70
2023-03-06T06:42:19.463Z,3.00
2023-03-06T06:44:45.207Z,3.00
2023-03-06T06:47:28.150Z,3.60
2023-03-06T06:49:56.833Z,3.37
2023-03-06T06:52:25.112Z,3.47
2023-03-06T06:54:53.061Z,3.90
2023-03-06T06:57:21.895Z,3.20
2023-03-06T06:59:51.189Z,3.37
2023-03-06T07:02:19.816Z,4.40
2023-03-06T07:05:02.359Z,5.80
2023-03-06T07:07:30.831Z,3.53
2023-03-06T07:09:58.351Z,4.70
2023-03-06T07:12:27.208Z,3.47
2023-03-06T07:14:54.604Z,3.73
2023-03-06T07:17:22.093Z,3.40
2023-03-06T07:19:50.128Z,4.20
2023-03-06T07:22:17.543Z,3.73
2023-03-06T07:24:44.948Z,2.67
2023-03-06T07:27:12.408Z,2.73
2023-03-06T07:29:43.621Z,3.33
2023-03-06T07:32:12.001Z,2.37
2023-03-06T07:34:39.452Z,2.67
2023-03-06T07:37:06.958Z,3.63
2023-03-06T07:39:34.402Z,3.90
2023-03-06T07:42:01.822Z,3.13
2023-03-06T07:44:29.377Z,9.00
2023-03-06T07:46:58.155Z,3.20
2023-03-06T07:49:25.595Z,2.97
2023-03-06T07:51:53.038Z,2.90
2023-03-06T07:54:20.494Z,2.97
2023-03-06T07:56:51.255Z,5.80
2023-03-06T07:59:18.973Z,4.53
2023-03-06T08:01:46.558Z,3.03
2023-03-06T08:04:15.338Z,4.90
2023-03-06T08:06:42.771Z,3.10
2023-03-06T08:09:10.200Z,2.37
2023-03-06T08:11:37.627Z,3.70
2023-03-06T08:14:05.116Z,3.13
2023-03-06T08:16:32.661Z,4.27
2023-03-06T08:19:00.121Z,6.03
2023-03-06T08:21:29.518Z,3.70
2023-03-06T08:23:57.567Z,3.03
2023-03-06T08:26:27.587Z,3.77
2023-03-06T08:28:56.028Z,3.43
2023-03-06T08:31:27.719Z,2.70
2023-03-06T08:33:56.076Z,4.07
2023-03-06T08:36:23.886Z,3.10
2023-03-06T08:38:52.736Z,13.57
2023-03-06T08:41:20.618Z,4.07
2023-03-06T08:43:48.778Z,5.60
2023-03-06T08:46:16.679Z,4.20
2023-03-06T08:48:44.188Z,3.20
2023-03-06T08:51:11.776Z,4.50
2023-03-06T08:53:44.028Z,4.80
2023-03-06T08:56:18.139Z,3.30
2023-03-06T08:58:45.797Z,5.27
2023-03-06T09:01:14.953Z,5.10
2023-03-06T09:03:42.458Z,4.17
2023-03-06T09:06:10.006Z,7.30
2023-03-06T09:08:37.433Z,6.80
2023-03-06T09:11:05.123Z,3.17
2023-03-06T09:13:35.366Z,7.00
2023-03-06T09:16:02.854Z,6.80
2023-03-06T09:18:30.324Z,8.10
2023-03-06T09:20:57.973Z,6.47
2023-03-06T09:23:25.433Z,5.93
2023-03-06T09:25:54.475Z,4.90
2023-03-06T09:28:22.301Z,5.17
2023-03-06T09:30:51.561Z,4.23
2023-03-06T09:33:19.405Z,3.13
2023-03-06T09:35:50.949Z,4.10
2023-03-06T09:38:18.776Z,7.93
2023-03-06T09:41:04.480Z,7.93
2023-03-06T09:43:35.421Z,8.57
2023-03-06T09:46:14.619Z,8.27
2023-03-06T09:48:53.789Z,8.73
2023-03-06T09:51:27.681Z,8.90
2023-03-06T09:54:02.222Z,6.77
2023-03-06T09:56:33.986Z,8.27
2023-03-06T09:59:08.555Z,8.07
2023-03-06T10:01:41.930Z,5.93
2023-03-06T10:04:18.148Z,8.77
2023-03-06T10:06:48.745Z,5.77
2023-03-06T10:09:20.909Z,5.33
2023-03-06T10:11:53.775Z,8.83
2023-03-06T10:14:28.084Z,3.73
2023-03-06T10:16:58.442Z,5.47
2023-03-06T10:19:33.837Z,4.93
2023-03-06T10:22:04.198Z,10.00
2023-03-06T10:24:47.362Z,8.63
2023-03-06T10:27:23.442Z,7.57
2023-03-06T10:30:03.275Z,6.30
2023-03-06T10:32:48.320Z,5.23
2023-03-06T10:35:19.726Z,6.77
2023-03-06T10:37:47.361Z,4.13
2023-03-06T10:40:17.936Z,5.40
2023-03-06T10:42:45.394Z,3.07
2023-03-06T10:45:15.642Z,3.83
2023-03-06T10:47:44.620Z,3.83
2023-03-06T10:50:24.797Z,3.30
2023-03-06T10:53:04.945Z,2.20
2023-03-06T10:55:34.846Z,3.23
2023-03-06T10:58:21.064Z,2.70
2023-03-06T11:00:48.502Z,2.97
2023-03-06T11:03:23.616Z,5.30
2023-03-06T11:05:57.451Z,4.23
2023-03-06T11:08:25.018Z,5.20
2023-03-06T11:10:58.473Z,3.87
2023-03-06T11:13:28.420Z,3.53
2023-03-06T11:15:59.407Z,5.10
2023-03-06T11:18:34.942Z,5.43
2023-03-06T11:21:06.318Z,2.80
2023-03-06T11:23:41.662Z,4.13
2023-03-06T11:26:25.123Z,3.30
2023-03-06T11:29:02.804Z,2.53
2023-03-06T11:31:33.264Z,2.90
2023-03-06T11:34:08.636Z,2.17
2023-03-06T11:36:40.727Z,4.30
2023-03-06T11:39:22.591Z,5.77
2023-03-06T11:41:57.831Z,5.63
2023-03-06T11:44:37.472Z,3.07
2023-03-06T11:47:11.904Z,5.20
2023-03-06T11:49:45.242Z,3.10
2023-03-06T11:52:20.801Z,3.17
2023-03-06T11:54:52.667Z,2.87
2023-03-06T11:57:23.767Z,2.90
2023-03-06T12:00:18.031Z,3.07
2023-03-06T12:03:02.927Z,3.37
2023-03-06T12:05:48.118Z,4.77
2023-03-06T12:08:33.836Z,6.80
2023-03-06T12:14:04.127Z,4.00
2023-03-06T12:16:41.666Z,4.47
2023-03-06T12:19:25.423Z,7.73
2023-03-06T12:22:10.089Z,2.70
2023-03-06T12:24:56.140Z,5.33
2023-03-06T12:27:32.389Z,2.77
2023-03-06T12:30:10.212Z,4.77
2023-03-06T12:32:50.084Z,4.00
2023-03-06T12:35:36.226Z,4.43
2023-03-06T12:38:24.283Z,1.97
2023-03-06T12:41:05.746Z,3.53
2023-03-06T12:43:55.906Z,2.53
2023-03-06T12:46:26.182Z,2.83
2023-03-06T12:49:04.047Z,2.43
2023-03-06T12:51:33.102Z,2.33
2023-03-06T12:54:04.159Z,3.33
2023-03-06T12:56:33.813Z,3.13
2023-03-06T12:59:02.455Z,3.33
2023-03-06T13:01:50.313Z,2.67
2023-03-06T13:04:34.911Z,3.07
2023-03-06T13:07:18.704Z,2.63
2023-03-06T13:10:05.938Z,3.33
2023-03-06T13:12:55.893Z,5.23
2023-03-06T13:15:38.285Z,2.63
2023-03-06T13:18:43.741Z,3.63
2023-03-06T13:21:44.599Z,4.40
2023-03-06T13:24:19.118Z,2.70
2023-03-06T13:26:57.266Z,3.47
2023-03-06T13:29:57.637Z,5.63
2023-03-06T13:32:34.640Z,2.83
2023-03-06T13:35:02.348Z,3.13
2023-03-06T13:37:54.101Z,3.23
2023-03-06T13:40:30.754Z,2.23
2023-03-06T13:43:12.635Z,4.63
2023-03-06T13:45:43.257Z,1.97
2023-03-06T13:48:43.054Z,3.17
2023-03-06T13:51:22.156Z,2.40
2023-03-06T13:54:25.415Z,1.67
2023-03-06T13:57:05.094Z,2.10
2023-03-06T14:00:09.648Z,3.67
2023-03-06T14:02:59.078Z,2.57
2023-03-06T14:05:42.123Z,3.53
2023-03-06T14:08:15.532Z,2.70
2023-03-06T14:10:44.857Z,3.20
2023-03-06T14:13:19.266Z,6.37
2023-03-06T14:15:50.326Z,2.60
2023-03-06T14:18:23.772Z,2.40
2023-03-06T14:20:56.441Z,3.80
2023-03-06T14:23:27.051Z,4.43
2023-03-06T14:26:06.695Z,6.50
2023-03-06T14:28:35.854Z,6.03
2023-03-06T14:31:06.811Z,2.73
2023-03-06T14:33:42.839Z,2.60
2023-03-06T14:36:15.849Z,1.87
2023-03-06T14:38:47.309Z,7.23
2023-03-06T14:41:24.836Z,3.47
2023-03-06T14:43:52.578Z,2.73
2023-03-06T14:46:22.948Z,1.60
2023-03-06T14:48:50.894Z,2.70
2023-03-06T14:51:21.296Z,2.83
2023-03-06T14:53:50.808Z,2.80
2023-03-06T14:56:24.324Z,3.53
2023-03-06T14:58:56.385Z,2.57
2023-03-06T15:01:31.198Z,5.33
2023-03-06T15:04:01.125Z,2.13
2023-03-06T15:06:34.553Z,2.17
2023-03-06T15:09:07.720Z,4.77
2023-03-06T15:11:52.227Z,2.90
2023-03-06T15:14:22.323Z,4.13
2023-03-06T15:16:51.095Z,3.53
2023-03-06T15:19:20.785Z,4.07
2023-03-06T15:21:49.887Z,2.53
2023-03-06T15:24:34.135Z,2.03
2023-03-06T15:27:05.299Z,1.47
2023-03-06T15:29:33.673Z,2.33
2023-03-06T15:32:33.601Z,2.67
2023-03-06T15:35:28.034Z,1.80
2023-03-06T15:37:58.612Z,9.10
2023-03-06T15:40:32.141Z,4.03
2023-03-06T15:43:00.884Z,3.80
2023-03-06T15:45:32.488Z,3.70
2023-03-06T15:48:03.084Z,3.07
2023-03-06T15:50:31.426Z,3.00
2023-03-06T15:53:00.363Z,5.20
2023-03-06T15:55:28.364Z,2.97
2023-03-06T15:57:59.950Z,4.40
2023-03-06T16:00:30.100Z,6.83
2023-03-06T16:02:59.276Z,5.40
2023-03-06T16:05:30.134Z,7.40
2023-03-06T16:08:00.457Z,4.00
2023-03-06T16:10:31.659Z,3.33
2023-03-06T16:13:07.239Z,3.30
2023-03-06T16:15:39.984Z,3.17
2023-03-06T16:18:08.109Z,5.73
2023-03-06T16:20:41.052Z,1.63
2023-03-06T16:23:10.929Z,5.73
2023-03-06T16:25:46.375Z,4.27
2023-03-06T16:28:17.833Z,2.70
2023-03-06T16:30:46.687Z,4.10
2023-03-06T16:33:15.496Z,2.53
2023-03-06T16:35:46.703Z,3.20
2023-03-06T16:38:15.653Z,5.97
2023-03-06T16:40:43.536Z,5.57
2023-03-06T16:43:13.335Z,5.43
2023-03-06T16:45:42.182Z,9.07
2023-03-06T16:48:15.639Z,6.23
2023-03-06T16:50:44.526Z,5.87
2023-03-06T16:53:11.984Z,6.97
2023-03-06T16:55:39.441Z,3.00
2023-03-06T16:58:08.549Z,4.90
2023-03-06T17:00:36.014Z,4.83
2023-03-06T17:03:03.587Z,3.37
2023-03-06T17:05:34.041Z,5.63
2023-03-06T17:08:03.613Z,2.87
2023-03-06T17:10:31.085Z,6.13
2023-03-06T17:16:46.468Z,5.50
2023-03-06T17:19:15.237Z,4.63
2023-03-06T17:21:42.744Z,5.17
2023-03-06T17:24:11.483Z,3.77
2023-03-06T17:26:39.090Z,5.60
2023-03-06T17:29:07.180Z,5.00
2023-03-06T17:31:34.668Z,5.97
2023-03-06T17:34:02.130Z,5.90
2023-03-06T17:36:30.817Z,4.07
2023-03-06T17:38:59.486Z,5.13
2023-03-06T17:41:28.861Z,4.33
2023-03-06T17:43:58.211Z,5.93
2023-03-06T17:46:26.507Z,3.87
2023-03-06T17:48:53.951Z,5.33
2023-03-06T17:51:21.384Z,7.03
2023-03-06T17:53:49.207Z,6.27
2023-03-06T17:56:16.733Z,7.23
2023-03-06T17:58:45.765Z,6.40
2023-03-06T18:01:22.586Z,6.43
2023-03-06T18:03:51.866Z,5.53
2023-03-06T18:06:20.977Z,2.90
2023-03-06T18:08:51.558Z,5.40
2023-03-06T18:11:20.393Z,5.33
2023-03-06T18:13:49.275Z,4.50
2023-03-06T18:16:18.945Z,9.37
2023-03-06T18:18:47.301Z,5.87
2023-03-06T18:21:16.427Z,7.87
2023-03-06T18:23:43.903Z,5.60
2023-03-06T18:26:13.413Z,5.27
2023-03-06T18:28:42.603Z,8.77
2023-03-06T18:31:17.016Z,6.57
2023-03-06T18:33:44.578Z,5.97
2023-03-06T18:36:12.137Z,8.70
2023-03-06T18:38:41.306Z,8.53
2023-03-06T18:41:09.366Z,6.17
2023-03-06T18:43:36.957Z,7.13
2023-03-06T18:46:05.196Z,11.80
2023-03-06T18:48:33.936Z,10.60
2023-03-06T18:51:04.787Z,8.67
2023-03-06T18:53:32.304Z,9.60
2023-03-06T18:55:59.801Z,11.27
2023-03-06T18:58:27.850Z,11.70
2023-03-06T19:00:56.677Z,7.43
2023-03-06T19:03:25.145Z,9.17
2023-03-06T19:05:53.868Z,11.67
2023-03-06T19:08:21.284Z,10.93
2023-03-06T19:10:49.960Z,12.20
2023-03-06T19:13:17.401Z,10.53
2023-03-06T19:15:45.912Z,12.97
2023-03-06T19:18:14.899Z,11.20
2023-03-06T19:20:42.358Z,12.30
2023-03-06T19:23:11.695Z,12.67
2023-03-06T19:25:39.150Z,14.23
2023-03-06T19:28:06.837Z,14.43
2023-03-06T19:30:34.604Z,11.77
2023-03-06T19:33:02.004Z,12.20
2023-03-06T19:35:29.462Z,11.03
2023-03-06T19:37:56.930Z,12.67
2023-03-06T19:40:25.680Z,14.37
2023-03-06T19:42:53.113Z,14.97
2023-03-06T19:45:20.593Z,16.77
2023-03-06T19:47:49.209Z,13.90
2023-03-06T19:50:17.179Z,14.00
2023-03-06T19:52:44.575Z,13.57
2023-03-06T19:55:12.103Z,13.47
2023-03-06T19:57:41.024Z,12.27
2023-03-06T20:00:09.753Z,10.80
2023-03-06T20:02:37.442Z,10.33
2023-03-06T20:05:08.083Z,17.17
2023-03-06T20:07:36.662Z,11.67
2023-03-06T20:10:04.589Z,11.73
2023-03-06T20:12:33.122Z,12.87
2023-03-06T20:15:01.919Z,9.13
2023-03-06T20:17:29.981Z,10.70
2023-03-06T20:19:57.535Z,11.60
2023-03-06T20:22:24.934Z,11.97
2023-03-06T20:24:52.551Z,9.97
2023-03-06T20:27:20.098Z,9.37
2023-03-06T20:29:47.753Z,9.77
2023-03-06T20:32:16.621Z,10.00
2023-03-06T20:34:44.484Z,14.77
2023-03-06T20:37:12.023Z,9.53
2023-03-06T20:39:39.435Z,11.00
2023-03-06T20:42:06.905Z,8.67
2023-03-06T20:44:34.308Z,11.47
2023-03-06T20:47:01.724Z,9.67
2023-03-06T20:49:30.471Z,11.40
2023-03-06T20:51:57.849Z,10.83
2023-03-06T20:54:25.367Z,9.97
2023-03-06T20:56:52.757Z,8.97
2023-03-06T20:59:20.204Z,8.10
2023-03-06T21:01:48.185Z,12.40
2023-03-06T21:04:16.433Z,9.40
2023-03-06T21:06:47.021Z,11.33
2023-03-06T21:09:15.904Z,11.20
2023-03-06T21:11:43.687Z,8.37
2023-03-06T21:14:13.174Z,8.20
2023-03-06T21:16:41.218Z,9.87
2023-03-06T21:19:09.191Z,8.50
2023-03-06T21:21:36.683Z,9.33
2023-03-06T21:24:05.798Z,8.07
2023-03-06T21:26:34.652Z,10.17
2023-03-06T21:29:02.971Z,8.57
2023-03-06T21:31:31.675Z,8.23
2023-03-06T21:33:59.587Z,7.97
2023-03-06T21:36:27.594Z,7.03
2023-03-06T21:38:55.785Z,7.33
2023-03-06T21:41:26.731Z,7.97
2023-03-06T21:43:56.186Z,9.00
2023-03-06T21:46:23.739Z,8.00
2023-03-06T21:48:51.710Z,6.43
2023-03-06T21:51:20.760Z,6.33
2023-03-06T21:53:49.609Z,6.60
2023-03-06T21:56:18.967Z,5.37
2023-03-06T21:58:47.990Z,6.10
2023-03-06T22:01:19.129Z,5.40
2023-03-06T22:03:46.862Z,6.20
2023-03-06T22:06:16.553Z,5.97
2023-03-06T22:08:44.674Z,10.13
2023-03-06T22:11:13.998Z,6.57
2023-03-06T22:13:42.368Z,8.30
2023-03-06T22:16:11.754Z,5.33
2023-03-06T22:18:39.395Z,5.30
2023-03-06T22:21:08.289Z,4.77
2023-03-06T22:23:35.744Z,5.33
2023-03-06T22:26:04.430Z,4.27
2023-03-06T22:28:31.893Z,5.80
2023-03-06T22:31:04.923Z,6.37
2023-03-06T22:33:33.846Z,6.20
2023-03-06T22:36:06.084Z,4.90
2023-03-06T22:38:34.654Z,5.63
2023-03-06T22:41:02.358Z,5.43
2023-03-06T22:43:30.084Z,5.27
2023-03-06T22:46:01.742Z,5.03
2023-03-06T22:48:29.445Z,6.37
2023-03-06T22:51:02.965Z,5.23
2023-03-06T22:53:30.695Z,5.37
2023-03-06T22:55:58.901Z,5.03
2023-03-06T22:58:26.833Z,5.03
2023-03-06T23:00:54.459Z,6.93
2023-03-06T23:03:21.966Z,6.17
2023-03-06T23:05:49.374Z,6.37
2023-03-06T23:08:18.111Z,5.70
2023-03-06T23:10:45.859Z,5.73
2023-03-06T23:13:13.435Z,6.53
2023-03-06T23:15:40.897Z,6.23
2023-03-06T23:18:08.431Z,6.10
2023-03-06T23:20:35.870Z,6.50
2023-03-06T23:23:03.374Z,7.97
2023-03-06T23:25:32.137Z,6.37
2023-03-06T23:27:59.574Z,7.23
2023-03-06T23:30:27.030Z,7.17
2023-03-06T23:32:54.442Z,7.87
2023-03-06T23:35:21.880Z,8.30
2023-03-06T23:37:49.323Z,8.40
2023-03-06T23:40:16.990Z,9.87
2023-03-06T23:42:45.733Z,9.23
2023-03-06T23:45:13.173Z,11.17
2023-03-06T23:47:40.823Z,9.50
2023-03-06T23:50:09.192Z,10.73
2023-03-06T23:52:36.635Z,9.53
2023-03-06T23:55:04.205Z,12.67
2023-03-06T23:57:31.737Z,9.90
